Terminal Aerodrome Forecast
Issued by NWS

Home | Current Version | Previous Version | Text Only | Print | Product List | Glossary Off
Versions: 1 2 3 4 5 6 7 8 9 10 11 12 13 14 15 16 17 18 19 20 21

000
FTUS43 KBIS 280900 AAA
TAFMOT
TAF AMD
KMOT 280949Z 2810/2906 16006KT 6SM BR BKN005
     FM281200 18005KT 5SM BR SCT002
     FM281500 20009KT P6SM SCT060
     FM282100 23009KT P6SM FEW060
     FM290300 20006KT P6SM BKN090=

USA.gov is the U.S. government's official web portal to all federal, state and local government web resources and services.